createdAt,value
2023-12-05T00:00:02.973Z,80.70
2023-12-05T00:02:34.954Z,80.70
2023-12-05T00:05:11.296Z,81.26
2023-12-05T00:07:44.634Z,81.71
2023-12-05T00:10:17.496Z,81.91
2023-12-05T00:12:49.579Z,81.32
2023-12-05T00:15:22.009Z,81.42
2023-12-05T00:17:54.408Z,81.58
2023-12-05T00:20:29.669Z,81.53
2023-12-05T00:23:01.553Z,81.10
2023-12-05T00:25:35.192Z,81.03
2023-12-05T00:28:07.480Z,80.45
2023-12-05T00:30:39.833Z,80.10
2023-12-05T00:33:13.113Z,80.79
2023-12-05T00:35:49.296Z,79.75
2023-12-05T00:38:21.213Z,80.43
2023-12-05T00:40:53.675Z,79.82
2023-12-05T00:43:25.446Z,80.02
2023-12-05T00:45:57.723Z,80.06
2023-12-05T00:48:29.810Z,80.67
2023-12-05T00:51:04.782Z,80.29
2023-12-05T00:53:36.742Z,80.17
2023-12-05T00:56:15.968Z,79.28
2023-12-05T00:58:48.875Z,79.23
2023-12-05T01:01:23.145Z,80.20
2023-12-05T01:03:58.282Z,79.66
2023-12-05T01:06:33.554Z,79.35
2023-12-05T01:09:07.544Z,79.39
2023-12-05T01:11:40.165Z,79.35
2023-12-05T01:14:12.399Z,79.45
2023-12-05T01:16:46.632Z,79.24
2023-12-05T01:19:18.889Z,79.66
2023-12-05T01:21:54.273Z,79.72
2023-12-05T01:24:27.409Z,79.40
2023-12-05T01:26:59.973Z,78.92
2023-12-05T01:29:32.155Z,79.02
2023-12-05T01:32:04.561Z,79.08
2023-12-05T01:34:36.789Z,79.00
2023-12-05T01:37:31.743Z,78.75
2023-12-05T01:40:23.538Z,78.78
2023-12-05T01:43:07.965Z,78.84
2023-12-05T01:45:40.321Z,78.56
2023-12-05T01:48:14.861Z,78.44
2023-12-05T01:50:47.913Z,78.73
2023-12-05T01:53:25.077Z,78.39
2023-12-05T01:55:57.221Z,78.32
2023-12-05T01:58:30.101Z,78.37
2023-12-05T02:01:02.251Z,78.18
2023-12-05T02:03:35.386Z,78.29
2023-12-05T02:06:08.030Z,78.18
2023-12-05T02:08:44.034Z,78.31
2023-12-05T02:11:17.896Z,78.21
2023-12-05T02:13:53.384Z,79.32
2023-12-05T02:16:34.874Z,79.40
2023-12-05T02:19:37.927Z,79.15
2023-12-05T02:22:16.175Z,79.45
2023-12-05T02:25:07.961Z,79.30
2023-12-05T02:27:43.918Z,78.59
2023-12-05T02:30:16.321Z,79.06
2023-12-05T02:32:48.511Z,79.34
2023-12-05T02:35:21.294Z,79.33
2023-12-05T02:38:00.917Z,79.29
2023-12-05T02:40:41.494Z,79.25
2023-12-05T02:43:22.987Z,79.49
2023-12-05T02:46:08.663Z,79.87
2023-12-05T02:48:42.938Z,79.42
2023-12-05T02:51:15.722Z,80.32
2023-12-05T02:53:47.656Z,79.63
2023-12-05T02:56:20.189Z,79.69
2023-12-05T02:58:54.729Z,80.03
2023-12-05T03:01:26.934Z,79.43
2023-12-05T03:03:59.215Z,79.13
2023-12-05T03:06:31.550Z,79.60
2023-12-05T03:09:05.068Z,79.59
2023-12-05T03:11:37.209Z,79.93
2023-12-05T03:14:11.748Z,79.12
2023-12-05T03:16:45.256Z,79.61
2023-12-05T03:19:17.956Z,79.78
2023-12-05T03:21:50.655Z,79.59
2023-12-05T03:24:22.589Z,79.42
2023-12-05T03:26:54.740Z,79.34
2023-12-05T03:29:29.707Z,78.85
2023-12-05T03:32:01.801Z,78.75
2023-12-05T03:34:33.804Z,79.40
2023-12-05T03:37:05.906Z,78.90
2023-12-05T03:39:38.002Z,79.09
2023-12-05T03:42:10.412Z,79.16
2023-12-05T03:44:45.025Z,79.05
2023-12-05T03:47:17.271Z,79.36
2023-12-05T03:49:49.331Z,79.43
2023-12-05T03:52:21.901Z,79.00
2023-12-05T03:57:49.835Z,78.78
2023-12-05T04:00:25.296Z,78.84
2023-12-05T04:02:59.419Z,79.30
2023-12-05T04:05:32.723Z,78.76
2023-12-05T04:08:04.974Z,78.92
2023-12-05T04:10:37.689Z,78.68
2023-12-05T04:13:10.285Z,78.95
2023-12-05T04:15:46.299Z,79.69
2023-12-05T04:18:18.683Z,79.47
2023-12-05T04:20:51.482Z,79.17
2023-12-05T04:23:25.398Z,79.13
2023-12-05T04:26:00.655Z,80.27
2023-12-05T04:28:33.712Z,79.70
2023-12-05T04:31:09.401Z,79.54
2023-12-05T04:33:42.871Z,79.22
2023-12-05T04:36:17.480Z,79.25
2023-12-05T04:38:49.777Z,79.91
2023-12-05T04:41:22.272Z,80.08
2023-12-05T04:43:54.515Z,79.22
2023-12-05T04:46:29.994Z,78.62
2023-12-05T04:49:02.330Z,79.63
2023-12-05T04:51:35.509Z,79.60
2023-12-05T04:54:07.893Z,79.68
2023-12-05T04:56:40.504Z,79.19
2023-12-05T04:59:12.921Z,78.87
2023-12-05T05:01:48.196Z,79.57
2023-12-05T05:04:20.880Z,79.41
2023-12-05T05:06:54.084Z,79.57
2023-12-05T05:09:26.258Z,79.78
2023-12-05T05:11:58.690Z,79.73
2023-12-05T05:14:31.066Z,80.43
2023-12-05T05:17:08.734Z,80.14
2023-12-05T05:19:40.934Z,79.74
2023-12-05T05:22:13.511Z,79.45
2023-12-05T05:24:45.897Z,79.53
2023-12-05T05:27:18.860Z,79.78
2023-12-05T05:29:51.278Z,79.71
2023-12-05T05:32:27.097Z,79.04
2023-12-05T05:34:59.494Z,79.00
2023-12-05T05:37:32.091Z,79.20
2023-12-05T05:40:04.227Z,78.85
2023-12-05T05:42:36.914Z,79.15
2023-12-05T05:45:09.993Z,79.27
2023-12-05T05:47:45.769Z,79.50
2023-12-05T05:50:20.994Z,79.56
2023-12-05T05:52:53.872Z,79.74
2023-12-05T05:55:27.634Z,79.27
2023-12-05T05:58:00.110Z,79.02
2023-12-05T06:00:32.419Z,78.48
2023-12-05T06:03:08.080Z,78.96
2023-12-05T06:05:40.422Z,78.44
2023-12-05T06:08:13.331Z,78.51
2023-12-05T06:10:45.499Z,78.79
2023-12-05T06:13:18.490Z,78.43
2023-12-05T06:15:50.674Z,78.42
2023-12-05T06:18:26.110Z,78.83
2023-12-05T06:20:59.373Z,78.61
2023-12-05T06:23:32.093Z,78.34
2023-12-05T06:26:07.414Z,77.77
2023-12-05T06:28:40.501Z,78.23
2023-12-05T06:31:13.082Z,78.65
2023-12-05T06:33:48.507Z,77.97
2023-12-05T06:36:22.659Z,77.94
2023-12-05T06:38:55.347Z,77.66
2023-12-05T06:41:27.873Z,78.03
2023-12-05T06:44:00.502Z,78.23
2023-12-05T06:46:32.882Z,78.27
2023-12-05T06:49:08.430Z,77.69
2023-12-05T06:51:41.319Z,78.40
2023-12-05T06:54:13.946Z,79.31
2023-12-05T06:56:46.269Z,78.58
2023-12-05T06:59:18.936Z,78.72
2023-12-05T07:01:51.443Z,77.74
2023-12-05T07:04:27.117Z,78.34
2023-12-05T07:07:01.109Z,78.38
2023-12-05T07:09:36.109Z,77.76
2023-12-05T07:12:09.612Z,77.88
2023-12-05T07:14:42.655Z,77.71
2023-12-05T07:17:15.373Z,78.13
2023-12-05T07:19:51.349Z,78.81
2023-12-05T07:22:24.131Z,78.83
2023-12-05T07:24:57.179Z,78.66
2023-12-05T07:27:30.232Z,78.34
2023-12-05T07:30:03.292Z,78.16
2023-12-05T07:32:36.031Z,78.01
2023-12-05T07:35:12.332Z,78.12
2023-12-05T07:37:45.190Z,78.19
2023-12-05T07:40:18.994Z,78.64
2023-12-05T07:42:51.599Z,78.57
2023-12-05T07:45:24.772Z,78.66
2023-12-05T07:47:57.656Z,78.32
2023-12-05T07:50:33.385Z,78.41
2023-12-05T07:53:06.089Z,78.64
2023-12-05T07:55:39.339Z,77.85
2023-12-05T07:58:12.055Z,78.14
2023-12-05T08:00:45.234Z,77.75
2023-12-05T08:03:18.094Z,77.74
2023-12-05T08:05:53.996Z,78.17
2023-12-05T08:08:26.772Z,77.74
2023-12-05T08:10:59.734Z,77.23
2023-12-05T08:13:32.843Z,77.79
2023-12-05T08:16:05.953Z,77.83
2023-12-05T08:18:38.722Z,78.18
2023-12-05T08:21:14.900Z,77.49
2023-12-05T08:23:47.130Z,77.75
2023-12-05T08:26:19.732Z,77.46
2023-12-05T08:28:52.021Z,76.84
2023-12-05T08:31:24.653Z,77.10
2023-12-05T08:33:57.259Z,76.30
2023-12-05T08:36:33.584Z,76.79
2023-12-05T08:39:05.848Z,76.92
2023-12-05T08:41:38.451Z,76.94
2023-12-05T08:44:10.813Z,76.94
2023-12-05T08:46:43.418Z,76.83
2023-12-05T08:49:16.035Z,76.89
2023-12-05T08:51:51.599Z,76.81
2023-12-05T08:54:23.909Z,76.40
2023-12-05T08:56:56.571Z,75.94
2023-12-05T08:59:28.816Z,76.50
2023-12-05T09:02:02.370Z,76.27
2023-12-05T09:04:35.563Z,75.38
2023-12-05T09:07:11.228Z,75.13
2023-12-05T09:09:44.241Z,75.45
2023-12-05T09:12:16.991Z,75.27
2023-12-05T09:14:49.371Z,74.63
2023-12-05T09:17:22.935Z,74.00
2023-12-05T09:19:55.216Z,74.35
2023-12-05T09:22:30.739Z,74.24
2023-12-05T09:25:03.338Z,74.82
2023-12-05T09:27:36.270Z,74.15
2023-12-05T09:30:10.474Z,73.72
2023-12-05T09:32:43.307Z,74.50
2023-12-05T09:35:15.665Z,73.34
2023-12-05T09:37:51.417Z,73.50
2023-12-05T09:40:23.890Z,73.54
2023-12-05T09:42:59.067Z,74.44
2023-12-05T09:45:37.083Z,74.03
2023-12-05T09:48:13.182Z,73.22
2023-12-05T09:50:45.614Z,74.05
2023-12-05T09:53:21.971Z,74.13
2023-12-05T09:55:54.667Z,73.31
2023-12-05T09:58:27.907Z,73.40
2023-12-05T10:01:03.209Z,72.88
2023-12-05T10:03:40.891Z,73.43
2023-12-05T10:06:16.465Z,73.53
2023-12-05T10:08:56.371Z,72.68
2023-12-05T10:11:32.182Z,71.99
2023-12-05T10:14:05.560Z,72.19
2023-12-05T10:16:39.274Z,72.28
2023-12-05T10:19:14.589Z,73.26
2023-12-05T10:21:49.160Z,73.88
2023-12-05T10:24:44.717Z,73.61
2023-12-05T10:27:20.017Z,73.95
2023-12-05T10:29:52.258Z,73.83
2023-12-05T10:32:31.816Z,72.98
2023-12-05T10:35:05.531Z,72.52
2023-12-05T10:37:46.625Z,72.34
2023-12-05T10:40:27.307Z,72.87
2023-12-05T10:42:59.744Z,73.06
2023-12-05T10:45:33.162Z,71.60
2023-12-05T10:48:08.659Z,71.58
2023-12-05T10:50:40.930Z,72.37
2023-12-05T10:53:15.380Z,72.57
2023-12-05T10:55:50.374Z,72.63
2023-12-05T10:58:23.812Z,72.15
2023-12-05T11:00:56.676Z,72.57
2023-12-05T11:03:32.675Z,72.78
2023-12-05T11:06:08.528Z,72.02
2023-12-05T11:08:41.323Z,71.31
2023-12-05T11:11:19.049Z,71.53
2023-12-05T11:13:52.883Z,70.97
2023-12-05T11:16:29.968Z,71.38
2023-12-05T11:19:12.839Z,72.12
2023-12-05T11:21:59.427Z,71.38
2023-12-05T11:24:53.148Z,70.41
2023-12-05T11:27:45.743Z,70.00
2023-12-05T11:30:37.470Z,71.74
2023-12-05T11:33:21.518Z,70.91
2023-12-05T11:36:10.020Z,70.51
2023-12-05T11:38:47.468Z,69.21
2023-12-05T11:41:22.321Z,70.29
2023-12-05T11:44:52.276Z,71.68
2023-12-05T11:48:22.752Z,72.63
2023-12-05T11:50:57.617Z,72.36
2023-12-05T11:53:42.684Z,71.44
2023-12-05T11:56:23.184Z,71.52
2023-12-05T11:58:55.106Z,71.95
2023-12-05T12:01:26.587Z,73.31
2023-12-05T12:04:01.247Z,73.49
2023-12-05T12:06:38.124Z,73.98
2023-12-05T12:09:13.467Z,72.86
2023-12-05T12:11:46.473Z,72.54
2023-12-05T12:14:20.995Z,71.69
2023-12-05T12:16:55.108Z,72.13
2023-12-05T12:19:27.273Z,72.73
2023-12-05T12:22:01.979Z,74.48
2023-12-05T12:24:35.177Z,74.25
2023-12-05T12:27:09.008Z,74.34
2023-12-05T12:29:41.543Z,74.35
2023-12-05T12:32:15.628Z,75.30
2023-12-05T12:34:50.033Z,75.29
2023-12-05T12:37:27.594Z,77.30
2023-12-05T12:40:02.734Z,76.70
2023-12-05T12:42:35.395Z,75.80
2023-12-05T12:45:09.567Z,75.96
2023-12-05T12:47:41.521Z,76.70
2023-12-05T12:50:13.917Z,76.90
2023-12-05T12:52:51.023Z,77.33
2023-12-05T12:55:36.094Z,79.12
2023-12-05T12:58:08.983Z,79.14
2023-12-05T13:00:43.649Z,79.00
2023-12-05T13:03:16.105Z,79.26
2023-12-05T13:05:48.499Z,79.62
2023-12-05T13:08:23.998Z,80.00
2023-12-05T13:10:57.033Z,79.97
2023-12-05T13:13:29.178Z,79.99
2023-12-05T13:16:01.118Z,80.58
2023-12-05T13:18:50.520Z,80.04
2023-12-05T13:21:37.042Z,80.90
2023-12-05T13:24:14.151Z,80.02
2023-12-05T13:26:48.014Z,79.88
2023-12-05T13:29:21.276Z,80.85
2023-12-05T13:31:54.448Z,80.68
2023-12-05T13:34:28.672Z,79.82
2023-12-05T13:37:01.557Z,79.45
2023-12-05T13:39:36.404Z,79.56
2023-12-05T13:42:08.603Z,80.45
2023-12-05T13:44:44.900Z,81.09
2023-12-05T13:47:17.030Z,80.97
2023-12-05T13:49:49.727Z,81.33
2023-12-05T13:52:29.535Z,82.15
2023-12-05T13:55:05.535Z,81.88
2023-12-05T13:57:37.689Z,82.25
2023-12-05T14:00:28.902Z,82.17
2023-12-05T14:03:07.584Z,82.17
2023-12-05T14:05:43.505Z,83.23
2023-12-05T14:08:16.452Z,84.18
2023-12-05T14:10:52.189Z,83.70
2023-12-05T14:13:25.063Z,82.69
2023-12-05T14:15:59.617Z,82.67
2023-12-05T14:18:36.094Z,82.60
2023-12-05T14:21:10.362Z,83.21
2023-12-05T14:23:42.768Z,83.05
2023-12-05T14:26:17.524Z,82.82
2023-12-05T14:28:49.449Z,83.51
2023-12-05T14:31:21.200Z,84.57
2023-12-05T14:33:53.250Z,81.04
2023-12-05T14:36:26.664Z,80.58
2023-12-05T14:39:07.945Z,79.12
2023-12-05T14:41:46.921Z,78.64
2023-12-05T14:44:20.228Z,79.32
2023-12-05T14:46:54.178Z,78.16
2023-12-05T14:49:28.021Z,77.55
2023-12-05T14:51:59.587Z,77.05
2023-12-05T14:54:32.455Z,77.69
2023-12-05T14:57:06.939Z,76.69
2023-12-05T14:59:39.809Z,77.61
2023-12-05T15:02:13.246Z,77.23
2023-12-05T15:04:50.425Z,77.20
2023-12-05T15:07:26.746Z,76.43
2023-12-05T15:10:03.963Z,77.57
2023-12-05T15:12:40.869Z,78.22
2023-12-05T15:15:19.233Z,77.08
2023-12-05T15:17:58.627Z,77.75
2023-12-05T15:20:34.477Z,78.08
2023-12-05T15:23:12.344Z,77.89
2023-12-05T15:25:49.458Z,77.73
2023-12-05T15:28:29.826Z,78.97
2023-12-05T15:31:06.417Z,80.70
2023-12-05T15:33:37.973Z,82.42
2023-12-05T15:36:12.877Z,80.87
2023-12-05T15:38:45.718Z,81.29
2023-12-05T15:41:18.971Z,81.99
2023-12-05T15:43:53.748Z,83.17
2023-12-05T15:46:26.637Z,81.85
2023-12-05T15:49:00.242Z,80.69
2023-12-05T15:51:39.702Z,81.93
2023-12-05T15:54:11.216Z,82.71
2023-12-05T15:56:43.344Z,83.50
2023-12-05T15:59:20.962Z,82.30
2023-12-05T16:01:52.829Z,83.26
2023-12-05T16:04:24.737Z,84.45
2023-12-05T16:06:58.538Z,85.60
2023-12-05T16:09:33.419Z,84.21
2023-12-05T16:12:05.526Z,85.21
2023-12-05T16:14:42.231Z,86.25
2023-12-05T16:17:13.984Z,85.56
2023-12-05T16:19:45.779Z,85.19
2023-12-05T16:22:17.794Z,85.63
2023-12-05T16:24:49.449Z,87.08
2023-12-05T16:27:22.118Z,85.82
2023-12-05T16:29:57.041Z,85.81
2023-12-05T16:32:30.250Z,86.92
2023-12-05T16:35:02.802Z,88.04
2023-12-05T16:37:36.555Z,87.40
2023-12-05T16:40:23.223Z,85.88
2023-12-05T16:42:56.022Z,86.30
2023-12-05T16:45:30.812Z,84.80
2023-12-05T16:48:05.510Z,84.58
2023-12-05T16:50:37.868Z,86.02
2023-12-05T16:53:11.379Z,86.38
2023-12-05T16:55:44.171Z,86.11
2023-12-05T16:58:20.676Z,86.01
2023-12-05T17:00:56.826Z,85.03
2023-12-05T17:03:29.193Z,86.01
2023-12-05T17:06:01.351Z,84.52
2023-12-05T17:08:34.394Z,84.31
2023-12-05T17:11:07.016Z,84.96
2023-12-05T17:13:38.949Z,89.14
2023-12-05T17:16:13.663Z,90.43
2023-12-05T17:18:47.661Z,90.23
2023-12-05T17:21:20.763Z,91.17
2023-12-05T17:23:53.250Z,90.97
2023-12-05T17:26:26.274Z,90.91
2023-12-05T17:28:58.234Z,90.46
2023-12-05T17:31:32.800Z,90.09
2023-12-05T17:34:05.134Z,89.81
2023-12-05T17:36:37.110Z,90.05
2023-12-05T17:39:08.844Z,89.77
2023-12-05T17:41:40.592Z,89.50
2023-12-05T17:44:12.333Z,89.33
2023-12-05T17:46:46.669Z,88.72
2023-12-05T17:49:19.643Z,89.57
2023-12-05T17:51:56.691Z,88.98
2023-12-05T17:54:47.952Z,89.83
2023-12-05T17:57:24.070Z,90.43
2023-12-05T17:59:59.147Z,89.74
2023-12-05T18:02:36.266Z,88.68
2023-12-05T18:05:10.379Z,89.46
2023-12-05T18:07:54.458Z,89.54
2023-12-05T18:10:31.236Z,89.61
2023-12-05T18:13:03.155Z,89.89
2023-12-05T18:15:35.945Z,90.44
2023-12-05T18:18:15.668Z,90.70
2023-12-05T18:21:21.413Z,91.39
2023-12-05T18:23:54.312Z,91.39
2023-12-05T18:26:29.587Z,91.96
2023-12-05T18:29:01.913Z,91.52
2023-12-05T18:31:34.482Z,92.05
2023-12-05T18:34:09.808Z,91.55
2023-12-05T18:36:42.445Z,91.34
2023-12-05T18:39:14.815Z,91.94
2023-12-05T18:41:47.649Z,91.75
2023-12-05T18:44:19.799Z,91.32
2023-12-05T18:46:52.488Z,90.96
2023-12-05T18:49:29.225Z,90.52
2023-12-05T18:52:02.620Z,90.26
2023-12-05T18:54:39.581Z,90.04
2023-12-05T18:57:13.920Z,90.45
2023-12-05T18:59:47.048Z,90.56
2023-12-05T19:02:20.090Z,90.98
2023-12-05T19:04:57.204Z,91.36
2023-12-05T19:07:30.402Z,91.99
2023-12-05T19:10:08.153Z,92.66
2023-12-05T19:19:19.421Z,91.69
2023-12-05T19:21:54.506Z,90.67
2023-12-05T19:24:26.469Z,91.13
2023-12-05T19:27:00.665Z,91.21
2023-12-05T19:29:33.737Z,91.57
2023-12-05T19:32:08.766Z,91.43
2023-12-05T19:34:43.859Z,91.13
2023-12-05T19:37:22.039Z,90.50
2023-12-05T19:39:53.940Z,90.27
2023-12-05T19:42:27.635Z,90.27
2023-12-05T19:44:59.691Z,89.86
2023-12-05T19:47:34.881Z,88.99
2023-12-05T19:50:15.406Z,88.44
2023-12-05T19:52:51.086Z,88.31
2023-12-05T19:55:26.950Z,88.03
2023-12-05T19:58:01.580Z,87.64
2023-12-05T20:00:34.074Z,87.27
2023-12-05T20:03:08.797Z,87.43
2023-12-05T20:05:40.976Z,87.93
2023-12-05T20:08:16.196Z,88.38
2023-12-05T20:10:50.350Z,88.17
2023-12-05T20:13:22.631Z,89.10
2023-12-05T20:15:55.845Z,89.10
2023-12-05T20:18:30.731Z,89.39
2023-12-05T20:21:03.067Z,89.78
2023-12-05T20:23:38.213Z,89.58
2023-12-05T20:26:10.276Z,89.23
2023-12-05T20:28:42.599Z,88.28
2023-12-05T20:31:15.347Z,86.87
2023-12-05T20:33:47.945Z,86.79
2023-12-05T20:36:19.928Z,87.04
2023-12-05T20:38:55.223Z,86.86
2023-12-05T20:41:27.221Z,86.33
2023-12-05T20:44:00.124Z,87.01
2023-12-05T20:46:32.197Z,86.95
2023-12-05T20:49:06.250Z,87.07
2023-12-05T20:51:52.648Z,87.38
2023-12-05T20:54:27.732Z,87.19
2023-12-05T20:56:59.805Z,86.86
2023-12-05T20:59:32.366Z,86.42
2023-12-05T21:02:06.488Z,86.44
2023-12-05T21:04:44.627Z,86.70
2023-12-05T21:07:20.085Z,86.77
2023-12-05T21:09:55.364Z,86.09
2023-12-05T21:12:27.361Z,86.57
2023-12-05T21:15:12.338Z,85.88
2023-12-05T21:17:47.746Z,85.39
2023-12-05T21:20:23.211Z,85.47
2023-12-05T21:23:06.683Z,86.36
2023-12-05T21:25:41.662Z,85.74
2023-12-05T21:28:17.476Z,86.73
2023-12-05T21:30:55.831Z,85.71
2023-12-05T21:33:27.943Z,86.37
2023-12-05T21:36:00.811Z,86.00
2023-12-05T21:38:34.668Z,85.83
2023-12-05T21:41:12.201Z,85.29
2023-12-05T21:43:44.125Z,85.20
2023-12-05T21:46:24.962Z,85.01
2023-12-05T21:48:57.085Z,84.68
2023-12-05T21:51:32.211Z,84.35
2023-12-05T21:54:04.557Z,84.91
2023-12-05T21:56:41.672Z,86.09
2023-12-05T21:59:16.999Z,85.66
2023-12-05T22:01:52.100Z,86.58
2023-12-05T22:04:25.497Z,85.94
2023-12-05T22:06:59.768Z,87.37
2023-12-05T22:09:32.424Z,87.18
2023-12-05T22:12:07.766Z,87.71
2023-12-05T22:14:42.227Z,86.97
2023-12-05T22:17:19.724Z,87.29
2023-12-05T22:19:51.330Z,86.52
2023-12-05T22:22:24.951Z,86.53
2023-12-05T22:25:00.032Z,85.97
2023-12-05T22:34:31.675Z,85.85
2023-12-05T22:37:16.937Z,85.98
2023-12-05T22:39:49.521Z,85.59
2023-12-05T22:45:07.964Z,86.36
2023-12-05T22:47:42.665Z,86.19
2023-12-05T22:50:14.643Z,86.36
2023-12-05T22:52:46.656Z,88.15
2023-12-05T22:55:18.556Z,88.92
2023-12-05T22:57:50.702Z,88.84
2023-12-05T23:00:25.653Z,89.15
2023-12-05T23:03:04.994Z,89.10
2023-12-05T23:05:37.573Z,89.68
2023-12-05T23:08:09.766Z,89.62
2023-12-05T23:10:41.383Z,89.30
2023-12-05T23:13:13.486Z,89.69
2023-12-05T23:15:45.354Z,89.80
2023-12-05T23:18:20.871Z,90.31
2023-12-05T23:20:53.689Z,89.13
2023-12-05T23:23:25.665Z,90.14
2023-12-05T23:25:58.100Z,90.04
2023-12-05T23:28:31.537Z,89.60
2023-12-05T23:31:04.876Z,89.78
2023-12-05T23:33:39.850Z,89.51
2023-12-05T23:36:13.271Z,89.74
2023-12-05T23:38:45.360Z,89.21
2023-12-05T23:41:19.896Z,87.05
2023-12-05T23:43:52.300Z,88.40
2023-12-05T23:46:23.999Z,88.08
2023-12-05T23:48:58.745Z,88.99
2023-12-05T23:51:30.559Z,89.82
2023-12-05T23:54:02.510Z,85.86
2023-12-05T23:56:34.559Z,88.94
2023-12-05T23:59:06.775Z,89.73
